Terminal Aerodrome Forecast
Issued by NWS

Home | Current Version | Previous Version | Text Only | Print | Product List | Glossary On
Versions: 1 2 3 4 5 6 7 8 9 10 11 12 13 14 15 16 17 18 19
000
FTUS46 KMTR 221700
TAFSTS
TAF
KSTS 221736Z 2218/2318 VRB03KT P6SM BKN020 BKN100
     FM221900 17009KT P6SM FEW020 SCT080
     FM230200 17005KT P6SM FEW100
     FM230600 00000KT P6SM OVC008=

USA.gov is the U.S. government's official web portal to all federal, state and local government web resources and services.